sensor_id;sensor_type;location;lat;lon;timestamp;temperature;humidity
31391;DHT22;18022;45.492;11.548;2023-07-13T00:02:23;24.30;99.90
31391;DHT22;18022;45.492;11.548;2023-07-13T00:04:49;23.90;99.90
31391;DHT22;18022;45.492;11.548;2023-07-13T00:07:16;23.90;99.90
31391;DHT22;18022;45.492;11.548;2023-07-13T00:09:46;23.80;99.90
31391;DHT22;18022;45.492;11.548;2023-07-13T00:12:33;23.80;99.90
31391;DHT22;18022;45.492;11.548;2023-07-13T00:15:00;23.70;99.90
31391;DHT22;18022;45.492;11.548;2023-07-13T00:17:27;23.60;99.90
31391;DHT22;18022;45.492;11.548;2023-07-13T00:19:53;23.30;99.90
31391;DHT22;18022;45.492;11.548;2023-07-13T00:22:21;22.70;99.90
31391;DHT22;18022;45.492;11.548;2023-07-13T00:24:47;22.60;99.90
31391;DHT22;18022;45.492;11.548;2023-07-13T00:27:13;22.90;99.90
31391;DHT22;18022;45.492;11.548;2023-07-13T00:29:39;22.90;99.90
31391;DHT22;18022;45.492;11.548;2023-07-13T00:32:06;22.90;99.90
31391;DHT22;18022;45.492;11.548;2023-07-13T00:34:33;22.80;99.90
31391;DHT22;18022;45.492;11.548;2023-07-13T00:36:58;22.80;99.90
31391;DHT22;18022;45.492;11.548;2023-07-13T00:39:24;22.70;99.90
31391;DHT22;18022;45.492;11.548;2023-07-13T00:41:50;22.80;99.90
31391;DHT22;18022;45.492;11.548;2023-07-13T00:44:17;23.00;99.90
31391;DHT22;18022;45.492;11.548;2023-07-13T00:46:43;23.10;99.90
31391;DHT22;18022;45.492;11.548;2023-07-13T00:49:14;23.20;99.90
31391;DHT22;18022;45.492;11.548;2023-07-13T00:51:55;23.10;99.90
31391;DHT22;18022;45.492;11.548;2023-07-13T00:54:52;23.10;99.90
31391;DHT22;18022;45.492;11.548;2023-07-13T00:57:19;23.00;99.90
31391;DHT22;18022;45.492;11.548;2023-07-13T00:59:50;23.00;99.90
31391;DHT22;18022;45.492;11.548;2023-07-13T01:02:17;22.90;99.90
31391;DHT22;18022;45.492;11.548;2023-07-13T01:04:42;23.10;99.90
31391;DHT22;18022;45.492;11.548;2023-07-13T01:07:10;23.10;99.90
31391;DHT22;18022;45.492;11.548;2023-07-13T01:09:36;22.90;99.90
31391;DHT22;18022;45.492;11.548;2023-07-13T01:12:02;22.60;99.90
31391;DHT22;18022;45.492;11.548;2023-07-13T01:14:28;22.70;99.90
31391;DHT22;18022;45.492;11.548;2023-07-13T01:16:54;22.80;99.90
31391;DHT22;18022;45.492;11.548;2023-07-13T01:19:43;22.90;99.90
31391;DHT22;18022;45.492;11.548;2023-07-13T01:22:17;22.90;99.90
31391;DHT22;18022;45.492;11.548;2023-07-13T01:24:45;23.00;99.90
31391;DHT22;18022;45.492;11.548;2023-07-13T01:27:14;22.90;99.90
31391;DHT22;18022;45.492;11.548;2023-07-13T01:29:43;22.90;99.90
31391;DHT22;18022;45.492;11.548;2023-07-13T01:32:12;22.80;99.90
31391;DHT22;18022;45.492;11.548;2023-07-13T01:34:38;22.90;99.90
31391;DHT22;18022;45.492;11.548;2023-07-13T01:37:08;23.00;99.90
31391;DHT22;18022;45.492;11.548;2023-07-13T01:39:34;22.70;99.90
31391;DHT22;18022;45.492;11.548;2023-07-13T01:41:59;22.80;99.90
31391;DHT22;18022;45.492;11.548;2023-07-13T01:44:25;22.80;99.90
31391;DHT22;18022;45.492;11.548;2023-07-13T01:46:51;22.80;99.90
31391;DHT22;18022;45.492;11.548;2023-07-13T01:49:17;22.50;99.90
31391;DHT22;18022;45.492;11.548;2023-07-13T01:51:43;22.80;99.90
31391;DHT22;18022;45.492;11.548;2023-07-13T01:54:08;22.90;99.90
31391;DHT22;18022;45.492;11.548;2023-07-13T01:56:34;23.00;99.90
31391;DHT22;18022;45.492;11.548;2023-07-13T01:59:00;23.00;99.90
31391;DHT22;18022;45.492;11.548;2023-07-13T02:01:25;22.90;99.90
31391;DHT22;18022;45.492;11.548;2023-07-13T02:03:51;22.90;99.90
31391;DHT22;18022;45.492;11.548;2023-07-13T02:06:17;22.90;99.90
31391;DHT22;18022;45.492;11.548;2023-07-13T02:08:42;22.90;99.90
31391;DHT22;18022;45.492;11.548;2023-07-13T02:11:08;22.90;99.90
31391;DHT22;18022;45.492;11.548;2023-07-13T02:13:34;22.70;99.90
31391;DHT22;18022;45.492;11.548;2023-07-13T02:16:00;22.80;99.90
31391;DHT22;18022;45.492;11.548;2023-07-13T02:18:26;22.80;99.90
31391;DHT22;18022;45.492;11.548;2023-07-13T02:20:52;22.80;99.90
31391;DHT22;18022;45.492;11.548;2023-07-13T02:23:17;22.80;99.90
31391;DHT22;18022;45.492;11.548;2023-07-13T02:25:44;22.80;99.90
31391;DHT22;18022;45.492;11.548;2023-07-13T02:28:10;22.70;99.90
31391;DHT22;18022;45.492;11.548;2023-07-13T02:30:36;22.50;99.90
31391;DHT22;18022;45.492;11.548;2023-07-13T02:33:02;22.50;99.90
31391;DHT22;18022;45.492;11.548;2023-07-13T02:35:27;22.50;99.90
31391;DHT22;18022;45.492;11.548;2023-07-13T02:37:53;22.50;99.90
31391;DHT22;18022;45.492;11.548;2023-07-13T02:40:19;22.40;99.90
31391;DHT22;18022;45.492;11.548;2023-07-13T02:42:44;22.30;99.90
31391;DHT22;18022;45.492;11.548;2023-07-13T02:45:10;22.40;99.90
31391;DHT22;18022;45.492;11.548;2023-07-13T02:47:39;22.50;99.90
31391;DHT22;18022;45.492;11.548;2023-07-13T02:50:05;22.40;99.90
31391;DHT22;18022;45.492;11.548;2023-07-13T02:52:31;22.30;99.90
31391;DHT22;18022;45.492;11.548;2023-07-13T02:54:56;22.30;99.90
31391;DHT22;18022;45.492;11.548;2023-07-13T02:57:22;22.40;99.90
31391;DHT22;18022;45.492;11.548;2023-07-13T02:59:48;22.40;99.90
31391;DHT22;18022;45.492;11.548;2023-07-13T03:02:13;22.30;99.90
31391;DHT22;18022;45.492;11.548;2023-07-13T03:04:39;22.20;99.90
31391;DHT22;18022;45.492;11.548;2023-07-13T03:07:06;22.00;99.90
31391;DHT22;18022;45.492;11.548;2023-07-13T03:09:34;22.00;99.90
31391;DHT22;18022;45.492;11.548;2023-07-13T03:11:59;22.10;99.90
31391;DHT22;18022;45.492;11.548;2023-07-13T03:14:26;22.10;99.90
31391;DHT22;18022;45.492;11.548;2023-07-13T03:16:52;22.00;99.90
31391;DHT22;18022;45.492;11.548;2023-07-13T03:19:18;22.10;99.90
31391;DHT22;18022;45.492;11.548;2023-07-13T03:21:44;22.10;99.90
31391;DHT22;18022;45.492;11.548;2023-07-13T03:24:10;22.00;99.90
31391;DHT22;18022;45.492;11.548;2023-07-13T03:26:36;22.10;99.90
31391;DHT22;18022;45.492;11.548;2023-07-13T03:29:02;22.00;99.90
31391;DHT22;18022;45.492;11.548;2023-07-13T03:31:34;22.00;99.90
31391;DHT22;18022;45.492;11.548;2023-07-13T03:34:00;22.00;99.90
31391;DHT22;18022;45.492;11.548;2023-07-13T03:36:28;22.00;99.90
31391;DHT22;18022;45.492;11.548;2023-07-13T03:38:58;22.00;99.90
31391;DHT22;18022;45.492;11.548;2023-07-13T03:41:24;22.00;99.90
31391;DHT22;18022;45.492;11.548;2023-07-13T03:43:50;22.10;99.90
31391;DHT22;18022;45.492;11.548;2023-07-13T03:46:17;22.00;99.90
31391;DHT22;18022;45.492;11.548;2023-07-13T03:48:45;22.00;99.90
31391;DHT22;18022;45.492;11.548;2023-07-13T03:51:13;22.10;99.90
31391;DHT22;18022;45.492;11.548;2023-07-13T03:53:42;22.10;99.90
31391;DHT22;18022;45.492;11.548;2023-07-13T03:56:09;22.20;99.90
31391;DHT22;18022;45.492;11.548;2023-07-13T03:58:36;22.10;99.90
31391;DHT22;18022;45.492;11.548;2023-07-13T04:01:04;22.20;99.90
31391;DHT22;18022;45.492;11.548;2023-07-13T04:03:31;22.20;99.90
31391;DHT22;18022;45.492;11.548;2023-07-13T04:06:02;22.20;99.90
31391;DHT22;18022;45.492;11.548;2023-07-13T04:08:29;22.20;99.90
31391;DHT22;18022;45.492;11.548;2023-07-13T04:10:56;22.20;99.90
31391;DHT22;18022;45.492;11.548;2023-07-13T04:13:22;22.20;99.90
31391;DHT22;18022;45.492;11.548;2023-07-13T04:15:48;22.20;99.90
31391;DHT22;18022;45.492;11.548;2023-07-13T04:18:14;22.10;99.90
31391;DHT22;18022;45.492;11.548;2023-07-13T04:20:40;22.20;99.90
31391;DHT22;18022;45.492;11.548;2023-07-13T04:23:05;22.20;99.90
31391;DHT22;18022;45.492;11.548;2023-07-13T04:25:31;22.20;99.90
31391;DHT22;18022;45.492;11.548;2023-07-13T04:27:57;22.10;99.90
31391;DHT22;18022;45.492;11.548;2023-07-13T04:30:23;22.00;99.90
31391;DHT22;18022;45.492;11.548;2023-07-13T04:32:51;22.00;99.90
31391;DHT22;18022;45.492;11.548;2023-07-13T04:35:18;22.00;99.90
31391;DHT22;18022;45.492;11.548;2023-07-13T04:37:46;22.00;99.90
31391;DHT22;18022;45.492;11.548;2023-07-13T04:40:12;22.00;99.90
31391;DHT22;18022;45.492;11.548;2023-07-13T04:42:38;22.10;99.90
31391;DHT22;18022;45.492;11.548;2023-07-13T04:45:06;22.10;99.90
31391;DHT22;18022;45.492;11.548;2023-07-13T04:47:32;22.20;99.90
31391;DHT22;18022;45.492;11.548;2023-07-13T04:49:58;22.20;99.90
31391;DHT22;18022;45.492;11.548;2023-07-13T04:52:24;22.30;99.90
31391;DHT22;18022;45.492;11.548;2023-07-13T04:54:50;22.30;99.90
31391;DHT22;18022;45.492;11.548;2023-07-13T04:57:16;22.20;99.90
31391;DHT22;18022;45.492;11.548;2023-07-13T04:59:41;22.20;99.90
31391;DHT22;18022;45.492;11.548;2023-07-13T05:02:07;22.20;99.90
31391;DHT22;18022;45.492;11.548;2023-07-13T05:04:33;22.30;99.90
31391;DHT22;18022;45.492;11.548;2023-07-13T05:06:59;22.40;99.90
31391;DHT22;18022;45.492;11.548;2023-07-13T05:09:25;22.50;99.90
31391;DHT22;18022;45.492;11.548;2023-07-13T05:11:51;22.60;99.90
31391;DHT22;18022;45.492;11.548;2023-07-13T05:14:17;22.60;99.90
31391;DHT22;18022;45.492;11.548;2023-07-13T05:16:43;22.60;99.90
31391;DHT22;18022;45.492;11.548;2023-07-13T05:19:09;22.70;99.90
31391;DHT22;18022;45.492;11.548;2023-07-13T05:21:35;22.80;99.90
31391;DHT22;18022;45.492;11.548;2023-07-13T05:24:01;22.80;99.90
31391;DHT22;18022;45.492;11.548;2023-07-13T05:26:26;22.90;99.90
31391;DHT22;18022;45.492;11.548;2023-07-13T05:28:52;23.00;99.90
31391;DHT22;18022;45.492;11.548;2023-07-13T05:31:18;23.00;99.90
31391;DHT22;18022;45.492;11.548;2023-07-13T05:33:44;23.10;99.90
31391;DHT22;18022;45.492;11.548;2023-07-13T05:36:09;23.20;99.90
31391;DHT22;18022;45.492;11.548;2023-07-13T05:38:35;23.30;99.90
31391;DHT22;18022;45.492;11.548;2023-07-13T05:41:01;23.40;99.90
31391;DHT22;18022;45.492;11.548;2023-07-13T05:43:26;23.30;99.90
31391;DHT22;18022;45.492;11.548;2023-07-13T05:45:56;23.30;99.90
31391;DHT22;18022;45.492;11.548;2023-07-13T05:48:22;23.30;99.90
31391;DHT22;18022;45.492;11.548;2023-07-13T05:50:48;23.30;99.90
31391;DHT22;18022;45.492;11.548;2023-07-13T05:53:15;23.30;99.90
31391;DHT22;18022;45.492;11.548;2023-07-13T05:55:45;23.40;99.90
31391;DHT22;18022;45.492;11.548;2023-07-13T05:58:13;23.50;99.90
31391;DHT22;18022;45.492;11.548;2023-07-13T06:00:39;23.50;99.90
31391;DHT22;18022;45.492;11.548;2023-07-13T06:03:06;23.40;99.90
31391;DHT22;18022;45.492;11.548;2023-07-13T06:05:33;23.40;99.90
31391;DHT22;18022;45.492;11.548;2023-07-13T06:08:00;23.40;99.90
31391;DHT22;18022;45.492;11.548;2023-07-13T06:10:25;23.40;99.90
31391;DHT22;18022;45.492;11.548;2023-07-13T06:12:51;23.30;99.90
31391;DHT22;18022;45.492;11.548;2023-07-13T06:15:17;23.30;99.90
31391;DHT22;18022;45.492;11.548;2023-07-13T06:17:43;23.30;99.90
31391;DHT22;18022;45.492;11.548;2023-07-13T06:20:09;23.30;99.90
31391;DHT22;18022;45.492;11.548;2023-07-13T06:22:35;23.40;99.90
31391;DHT22;18022;45.492;11.548;2023-07-13T06:25:01;23.50;99.90
31391;DHT22;18022;45.492;11.548;2023-07-13T06:27:26;23.50;99.90
31391;DHT22;18022;45.492;11.548;2023-07-13T06:29:52;23.50;99.90
31391;DHT22;18022;45.492;11.548;2023-07-13T06:32:18;23.60;99.90
31391;DHT22;18022;45.492;11.548;2023-07-13T06:34:43;23.60;99.90
31391;DHT22;18022;45.492;11.548;2023-07-13T06:37:10;23.60;99.90
31391;DHT22;18022;45.492;11.548;2023-07-13T06:39:35;23.60;99.90
31391;DHT22;18022;45.492;11.548;2023-07-13T06:42:01;23.70;99.90
31391;DHT22;18022;45.492;11.548;2023-07-13T06:44:27;23.80;99.90
31391;DHT22;18022;45.492;11.548;2023-07-13T06:46:53;23.80;99.90
31391;DHT22;18022;45.492;11.548;2023-07-13T06:49:18;23.70;99.90
31391;DHT22;18022;45.492;11.548;2023-07-13T06:51:44;23.80;99.90
31391;DHT22;18022;45.492;11.548;2023-07-13T06:54:10;23.90;99.90
31391;DHT22;18022;45.492;11.548;2023-07-13T06:56:36;23.90;99.90
31391;DHT22;18022;45.492;11.548;2023-07-13T06:59:01;23.90;99.90
31391;DHT22;18022;45.492;11.548;2023-07-13T07:01:27;24.00;99.90
31391;DHT22;18022;45.492;11.548;2023-07-13T07:03:53;24.00;99.90
31391;DHT22;18022;45.492;11.548;2023-07-13T07:06:20;24.10;99.90
31391;DHT22;18022;45.492;11.548;2023-07-13T07:08:49;24.10;99.90
31391;DHT22;18022;45.492;11.548;2023-07-13T07:11:18;24.10;99.90
31391;DHT22;18022;45.492;11.548;2023-07-13T07:13:44;24.20;99.90
31391;DHT22;18022;45.492;11.548;2023-07-13T07:16:10;24.20;99.90
31391;DHT22;18022;45.492;11.548;2023-07-13T07:18:36;24.20;99.90
31391;DHT22;18022;45.492;11.548;2023-07-13T07:21:02;24.20;99.90
31391;DHT22;18022;45.492;11.548;2023-07-13T07:23:28;24.10;99.90
31391;DHT22;18022;45.492;11.548;2023-07-13T07:25:54;24.20;99.90
31391;DHT22;18022;45.492;11.548;2023-07-13T07:28:20;24.10;99.90
31391;DHT22;18022;45.492;11.548;2023-07-13T07:30:47;24.10;99.90
31391;DHT22;18022;45.492;11.548;2023-07-13T07:33:13;24.10;99.90
31391;DHT22;18022;45.492;11.548;2023-07-13T07:35:39;24.10;99.90
31391;DHT22;18022;45.492;11.548;2023-07-13T07:38:05;24.10;99.90
31391;DHT22;18022;45.492;11.548;2023-07-13T07:40:31;24.00;99.90
31391;DHT22;18022;45.492;11.548;2023-07-13T07:42:57;24.00;99.90
31391;DHT22;18022;45.492;11.548;2023-07-13T07:45:23;24.10;99.90
31391;DHT22;18022;45.492;11.548;2023-07-13T07:47:49;24.10;99.90
31391;DHT22;18022;45.492;11.548;2023-07-13T07:50:15;24.10;99.90
31391;DHT22;18022;45.492;11.548;2023-07-13T07:52:41;24.10;99.90
31391;DHT22;18022;45.492;11.548;2023-07-13T07:55:08;24.10;99.90
31391;DHT22;18022;45.492;11.548;2023-07-13T07:57:33;24.10;99.90
31391;DHT22;18022;45.492;11.548;2023-07-13T07:59:59;24.20;99.90
31391;DHT22;18022;45.492;11.548;2023-07-13T08:02:25;24.20;99.90
31391;DHT22;18022;45.492;11.548;2023-07-13T08:04:51;24.10;99.90
31391;DHT22;18022;45.492;11.548;2023-07-13T08:07:18;24.20;99.90
31391;DHT22;18022;45.492;11.548;2023-07-13T08:09:43;24.30;99.90
31391;DHT22;18022;45.492;11.548;2023-07-13T08:12:09;24.40;99.90
31391;DHT22;18022;45.492;11.548;2023-07-13T08:14:35;24.40;99.90
31391;DHT22;18022;45.492;11.548;2023-07-13T08:17:01;24.40;99.90
31391;DHT22;18022;45.492;11.548;2023-07-13T08:19:27;24.50;99.90
31391;DHT22;18022;45.492;11.548;2023-07-13T08:21:53;24.50;99.90
31391;DHT22;18022;45.492;11.548;2023-07-13T08:24:21;24.50;99.90
31391;DHT22;18022;45.492;11.548;2023-07-13T08:26:47;24.50;99.90
31391;DHT22;18022;45.492;11.548;2023-07-13T08:29:12;24.50;99.90
31391;DHT22;18022;45.492;11.548;2023-07-13T08:31:38;24.50;99.90
31391;DHT22;18022;45.492;11.548;2023-07-13T08:34:04;24.50;99.90
31391;DHT22;18022;45.492;11.548;2023-07-13T08:36:30;24.50;99.90
31391;DHT22;18022;45.492;11.548;2023-07-13T08:38:55;24.40;99.90
31391;DHT22;18022;45.492;11.548;2023-07-13T08:41:21;24.40;99.90
31391;DHT22;18022;45.492;11.548;2023-07-13T08:43:56;24.40;99.90
31391;DHT22;18022;45.492;11.548;2023-07-13T08:46:33;24.40;99.90
31391;DHT22;18022;45.492;11.548;2023-07-13T08:49:03;24.40;99.90
31391;DHT22;18022;45.492;11.548;2023-07-13T08:51:57;24.40;99.90
31391;DHT22;18022;45.492;11.548;2023-07-13T08:54:37;24.40;99.90
31391;DHT22;18022;45.492;11.548;2023-07-13T08:57:14;24.40;99.90
31391;DHT22;18022;45.492;11.548;2023-07-13T08:59:40;24.40;99.90
31391;DHT22;18022;45.492;11.548;2023-07-13T09:12:54;24.40;99.90
31391;DHT22;18022;45.492;11.548;2023-07-13T09:15:29;24.20;99.90
31391;DHT22;18022;45.492;11.548;2023-07-13T09:18:01;24.20;99.90
31391;DHT22;18022;45.492;11.548;2023-07-13T09:20:36;24.10;99.90
31391;DHT22;18022;45.492;11.548;2023-07-13T09:23:09;24.10;99.90
31391;DHT22;18022;45.492;11.548;2023-07-13T09:25:38;24.20;99.90
31391;DHT22;18022;45.492;11.548;2023-07-13T09:28:24;24.20;99.90
31391;DHT22;18022;45.492;11.548;2023-07-13T09:31:15;24.30;99.90
31391;DHT22;18022;45.492;11.548;2023-07-13T09:33:42;24.20;99.90
31391;DHT22;18022;45.492;11.548;2023-07-13T09:36:30;24.10;99.90
31391;DHT22;18022;45.492;11.548;2023-07-13T09:38:59;24.20;99.90
31391;DHT22;18022;45.492;11.548;2023-07-13T09:42:07;24.10;99.90
31391;DHT22;18022;45.492;11.548;2023-07-13T09:44:34;24.10;99.90
31391;DHT22;18022;45.492;11.548;2023-07-13T09:47:01;24.10;99.90
31391;DHT22;18022;45.492;11.548;2023-07-13T09:49:31;24.00;99.90
31391;DHT22;18022;45.492;11.548;2023-07-13T09:52:01;24.10;99.90
31391;DHT22;18022;45.492;11.548;2023-07-13T09:54:27;24.10;99.90
31391;DHT22;18022;45.492;11.548;2023-07-13T09:56:57;24.00;99.90
31391;DHT22;18022;45.492;11.548;2023-07-13T09:59:31;24.00;99.90
31391;DHT22;18022;45.492;11.548;2023-07-13T10:01:57;23.90;99.90
31391;DHT22;18022;45.492;11.548;2023-07-13T10:04:32;23.90;99.90
31391;DHT22;18022;45.492;11.548;2023-07-13T10:07:09;23.90;99.90
31391;DHT22;18022;45.492;11.548;2023-07-13T10:09:35;24.10;99.90
31391;DHT22;18022;45.492;11.548;2023-07-13T10:12:01;24.20;99.90
31391;DHT22;18022;45.492;11.548;2023-07-13T10:14:27;24.40;99.90
31391;DHT22;18022;45.492;11.548;2023-07-13T10:17:00;24.50;99.90
31391;DHT22;18022;45.492;11.548;2023-07-13T10:19:34;24.70;99.90
31391;DHT22;18022;45.492;11.548;2023-07-13T10:22:02;25.10;99.90
31391;DHT22;18022;45.492;11.548;2023-07-13T10:24:37;25.10;99.90
31391;DHT22;18022;45.492;11.548;2023-07-13T10:27:17;24.80;99.90
31391;DHT22;18022;45.492;11.548;2023-07-13T10:29:50;24.80;99.90
31391;DHT22;18022;45.492;11.548;2023-07-13T10:32:20;25.00;99.90
31391;DHT22;18022;45.492;11.548;2023-07-13T10:34:48;25.50;99.90
31391;DHT22;18022;45.492;11.548;2023-07-13T10:37:22;25.80;99.90
31391;DHT22;18022;45.492;11.548;2023-07-13T10:39:50;26.10;99.90
31391;DHT22;18022;45.492;11.548;2023-07-13T10:42:29;26.30;99.90
31391;DHT22;18022;45.492;11.548;2023-07-13T10:44:56;26.40;99.90
31391;DHT22;18022;45.492;11.548;2023-07-13T10:47:22;26.50;99.90
31391;DHT22;18022;45.492;11.548;2023-07-13T10:49:52;26.60;99.90
31391;DHT22;18022;45.492;11.548;2023-07-13T10:53:16;26.70;99.90
31391;DHT22;18022;45.492;11.548;2023-07-13T10:55:39;27.10;99.90
31391;DHT22;18022;45.492;11.548;2023-07-13T11:01:10;26.90;99.90
31391;DHT22;18022;45.492;11.548;2023-07-13T11:04:01;27.00;99.90
31391;DHT22;18022;45.492;11.548;2023-07-13T11:08:58;27.60;99.90
31391;DHT22;18022;45.492;11.548;2023-07-13T11:21:31;28.50;99.90
31391;DHT22;18022;45.492;11.548;2023-07-13T11:31:55;28.50;99.90
31391;DHT22;18022;45.492;11.548;2023-07-13T11:34:30;28.60;99.90
31391;DHT22;18022;45.492;11.548;2023-07-13T11:36:59;28.70;99.90
31391;DHT22;18022;45.492;11.548;2023-07-13T11:39:36;28.60;99.90
31391;DHT22;18022;45.492;11.548;2023-07-13T11:42:06;29.00;99.90
31391;DHT22;18022;45.492;11.548;2023-07-13T11:44:34;28.90;99.90
31391;DHT22;18022;45.492;11.548;2023-07-13T11:47:10;28.60;99.90
31391;DHT22;18022;45.492;11.548;2023-07-13T11:49:45;28.50;99.90
31391;DHT22;18022;45.492;11.548;2023-07-13T11:52:33;28.50;99.90
31391;DHT22;18022;45.492;11.548;2023-07-13T11:55:01;28.70;99.90
31391;DHT22;18022;45.492;11.548;2023-07-13T11:57:37;28.90;99.90
31391;DHT22;18022;45.492;11.548;2023-07-13T12:00:17;28.90;99.90
31391;DHT22;18022;45.492;11.548;2023-07-13T12:02:47;28.80;99.90
31391;DHT22;18022;45.492;11.548;2023-07-13T12:05:16;28.60;99.90
31391;DHT22;18022;45.492;11.548;2023-07-13T12:07:43;28.60;99.90
31391;DHT22;18022;45.492;11.548;2023-07-13T12:10:17;28.50;99.90
31391;DHT22;18022;45.492;11.548;2023-07-13T12:12:51;28.70;99.90
31391;DHT22;18022;45.492;11.548;2023-07-13T12:15:17;28.80;99.90
31391;DHT22;18022;45.492;11.548;2023-07-13T12:17:42;28.70;99.90
31391;DHT22;18022;45.492;11.548;2023-07-13T12:20:24;28.60;99.90
31391;DHT22;18022;45.492;11.548;2023-07-13T12:22:52;28.60;99.90
31391;DHT22;18022;45.492;11.548;2023-07-13T12:25:18;28.70;99.90
31391;DHT22;18022;45.492;11.548;2023-07-13T12:27:51;28.50;99.90
31391;DHT22;18022;45.492;11.548;2023-07-13T12:33:00;28.70;99.90
31391;DHT22;18022;45.492;11.548;2023-07-13T12:35:29;28.70;99.90
31391;DHT22;18022;45.492;11.548;2023-07-13T12:37:57;28.80;99.90
31391;DHT22;18022;45.492;11.548;2023-07-13T12:40:33;29.00;99.90
31391;DHT22;18022;45.492;11.548;2023-07-13T12:43:00;29.30;99.90
31391;DHT22;18022;45.492;11.548;2023-07-13T12:45:30;29.40;99.90
31391;DHT22;18022;45.492;11.548;2023-07-13T12:48:15;29.50;99.90
31391;DHT22;18022;45.492;11.548;2023-07-13T12:50:47;29.60;99.90
31391;DHT22;18022;45.492;11.548;2023-07-13T12:53:16;29.50;99.90
31391;DHT22;18022;45.492;11.548;2023-07-13T12:56:03;29.30;99.90
31391;DHT22;18022;45.492;11.548;2023-07-13T12:58:41;29.30;99.90
31391;DHT22;18022;45.492;11.548;2023-07-13T13:01:10;29.60;99.90
31391;DHT22;18022;45.492;11.548;2023-07-13T13:03:51;29.60;99.90
31391;DHT22;18022;45.492;11.548;2023-07-13T13:08:46;29.30;99.90
31391;DHT22;18022;45.492;11.548;2023-07-13T13:11:17;29.30;99.90
31391;DHT22;18022;45.492;11.548;2023-07-13T13:13:44;29.30;99.90
31391;DHT22;18022;45.492;11.548;2023-07-13T13:18:44;29.50;99.90
31391;DHT22;18022;45.492;11.548;2023-07-13T13:21:10;29.60;99.90
31391;DHT22;18022;45.492;11.548;2023-07-13T13:23:37;29.70;99.90
31391;DHT22;18022;45.492;11.548;2023-07-13T13:26:04;30.00;99.90
31391;DHT22;18022;45.492;11.548;2023-07-13T13:28:32;30.00;99.90
31391;DHT22;18022;45.492;11.548;2023-07-13T13:30:58;30.10;99.90
31391;DHT22;18022;45.492;11.548;2023-07-13T13:33:23;29.90;99.90
31391;DHT22;18022;45.492;11.548;2023-07-13T13:35:49;30.00;99.90
31391;DHT22;18022;45.492;11.548;2023-07-13T13:38:18;29.90;99.90
31391;DHT22;18022;45.492;11.548;2023-07-13T13:40:45;29.60;99.90
31391;DHT22;18022;45.492;11.548;2023-07-13T13:43:25;29.50;99.90
31391;DHT22;18022;45.492;11.548;2023-07-13T13:45:57;29.50;99.90
31391;DHT22;18022;45.492;11.548;2023-07-13T13:48:32;29.30;99.90
31391;DHT22;18022;45.492;11.548;2023-07-13T13:50:59;29.20;99.90
31391;DHT22;18022;45.492;11.548;2023-07-13T13:53:25;29.20;99.90
31391;DHT22;18022;45.492;11.548;2023-07-13T13:55:51;29.10;99.90
31391;DHT22;18022;45.492;11.548;2023-07-13T13:58:18;29.10;99.90
31391;DHT22;18022;45.492;11.548;2023-07-13T14:00:45;29.20;99.90
31391;DHT22;18022;45.492;11.548;2023-07-13T14:03:18;29.30;99.90
31391;DHT22;18022;45.492;11.548;2023-07-13T14:05:45;29.30;99.90
31391;DHT22;18022;45.492;11.548;2023-07-13T14:08:17;29.40;99.90
31391;DHT22;18022;45.492;11.548;2023-07-13T14:10:44;29.20;99.90
31391;DHT22;18022;45.492;11.548;2023-07-13T14:15:45;29.10;99.90
31391;DHT22;18022;45.492;11.548;2023-07-13T14:18:11;29.20;99.90
31391;DHT22;18022;45.492;11.548;2023-07-13T14:20:37;29.10;99.90
31391;DHT22;18022;45.492;11.548;2023-07-13T14:23:03;29.10;99.90
31391;DHT22;18022;45.492;11.548;2023-07-13T14:25:29;29.20;99.90
31391;DHT22;18022;45.492;11.548;2023-07-13T14:27:58;29.20;99.90
31391;DHT22;18022;45.492;11.548;2023-07-13T14:30:26;29.20;99.90
31391;DHT22;18022;45.492;11.548;2023-07-13T14:32:52;29.10;99.90
31391;DHT22;18022;45.492;11.548;2023-07-13T14:35:20;29.00;99.90
31391;DHT22;18022;45.492;11.548;2023-07-13T14:37:47;28.90;99.90
31391;DHT22;18022;45.492;11.548;2023-07-13T14:40:19;28.70;99.90
31391;DHT22;18022;45.492;11.548;2023-07-13T14:42:47;28.70;99.90
31391;DHT22;18022;45.492;11.548;2023-07-13T14:45:18;28.70;99.90
31391;DHT22;18022;45.492;11.548;2023-07-13T14:47:45;28.70;99.90
31391;DHT22;18022;45.492;11.548;2023-07-13T14:50:19;28.60;99.90
31391;DHT22;18022;45.492;11.548;2023-07-13T14:52:47;28.60;99.90
31391;DHT22;18022;45.492;11.548;2023-07-13T14:55:17;28.50;99.90
31391;DHT22;18022;45.492;11.548;2023-07-13T14:57:43;28.40;99.90
31391;DHT22;18022;45.492;11.548;2023-07-13T15:00:17;28.30;99.90
31391;DHT22;18022;45.492;11.548;2023-07-13T15:02:48;28.30;99.90
31391;DHT22;18022;45.492;11.548;2023-07-13T15:05:21;28.20;99.90
31391;DHT22;18022;45.492;11.548;2023-07-13T15:07:48;28.00;99.90
31391;DHT22;18022;45.492;11.548;2023-07-13T15:10:26;28.00;99.90
31391;DHT22;18022;45.492;11.548;2023-07-13T15:12:52;27.80;99.90
31391;DHT22;18022;45.492;11.548;2023-07-13T15:15:19;27.70;99.90
31391;DHT22;18022;45.492;11.548;2023-07-13T15:17:46;27.60;99.90
31391;DHT22;18022;45.492;11.548;2023-07-13T15:20:19;27.30;99.90
31391;DHT22;18022;45.492;11.548;2023-07-13T15:22:45;27.30;99.90
31391;DHT22;18022;45.492;11.548;2023-07-13T15:25:17;27.10;99.90
31391;DHT22;18022;45.492;11.548;2023-07-13T15:27:44;27.10;99.70
31391;DHT22;18022;45.492;11.548;2023-07-13T15:30:10;27.20;99.60
31391;DHT22;18022;45.492;11.548;2023-07-13T15:32:36;27.20;99.10
31391;DHT22;18022;45.492;11.548;2023-07-13T15:35:02;27.00;97.20
31391;DHT22;18022;45.492;11.548;2023-07-13T15:37:28;26.80;98.20
31391;DHT22;18022;45.492;11.548;2023-07-13T15:39:54;26.70;98.00
31391;DHT22;18022;45.492;11.548;2023-07-13T15:42:20;26.70;97.30
31391;DHT22;18022;45.492;11.548;2023-07-13T15:44:47;26.70;96.80
31391;DHT22;18022;45.492;11.548;2023-07-13T15:47:14;26.80;97.40
31391;DHT22;18022;45.492;11.548;2023-07-13T15:49:41;27.10;97.50
31391;DHT22;18022;45.492;11.548;2023-07-13T15:52:23;27.20;97.10
31391;DHT22;18022;45.492;11.548;2023-07-13T15:54:49;27.30;97.10
31391;DHT22;18022;45.492;11.548;2023-07-13T15:57:16;27.30;98.20
31391;DHT22;18022;45.492;11.548;2023-07-13T15:59:43;27.40;98.70
31391;DHT22;18022;45.492;11.548;2023-07-13T16:02:17;27.40;97.90
31391;DHT22;18022;45.492;11.548;2023-07-13T16:04:43;27.30;97.60
31391;DHT22;18022;45.492;11.548;2023-07-13T16:07:14;27.30;97.80
31391;DHT22;18022;45.492;11.548;2023-07-13T16:09:43;27.30;97.70